createdAt,value
2023-04-30T00:00:31.462Z,37.72
2023-04-30T00:02:59.241Z,37.72
2023-04-30T00:05:26.722Z,37.73
2023-04-30T00:07:54.166Z,37.78
2023-04-30T00:10:21.831Z,37.75
2023-04-30T00:12:49.259Z,37.78
2023-04-30T00:15:16.759Z,37.82
2023-04-30T00:17:44.468Z,37.82
2023-04-30T00:20:12.467Z,37.83
2023-04-30T00:22:39.910Z,37.82
2023-04-30T00:25:07.812Z,37.83
2023-04-30T00:27:35.196Z,37.82
2023-04-30T00:30:02.792Z,37.78
2023-04-30T00:32:32.187Z,37.78
2023-04-30T00:34:59.626Z,37.78
2023-04-30T00:37:27.058Z,37.82
2023-04-30T00:39:54.998Z,37.82
2023-04-30T00:42:22.585Z,37.80
2023-04-30T00:44:49.990Z,37.84
2023-04-30T00:47:17.920Z,37.91
2023-04-30T00:49:45.314Z,37.93
2023-04-30T00:52:13.265Z,37.97
2023-04-30T00:54:41.457Z,37.93
2023-04-30T00:57:09.869Z,37.98
2023-04-30T00:59:37.291Z,38.00
2023-04-30T01:02:05.119Z,38.02
2023-04-30T01:04:33.553Z,38.02
2023-04-30T01:07:02.241Z,38.06
2023-04-30T01:09:30.031Z,38.08
2023-04-30T01:12:25.977Z,38.09
2023-04-30T01:14:58.956Z,38.11
2023-04-30T01:17:35.488Z,38.15
2023-04-30T01:20:03.256Z,38.17
2023-04-30T01:22:37.286Z,38.07
2023-04-30T01:25:32.990Z,38.08
2023-04-30T01:28:03.936Z,38.02
2023-04-30T01:30:32.008Z,38.09
2023-04-30T01:32:59.635Z,38.17
2023-04-30T01:36:02.573Z,38.17
2023-04-30T01:38:45.436Z,38.16
2023-04-30T01:41:21.551Z,38.17
2023-04-30T01:43:59.364Z,38.20
2023-04-30T01:46:30.926Z,38.23
2023-04-30T01:49:02.224Z,38.28
2023-04-30T01:51:42.753Z,38.24
2023-04-30T01:54:18.175Z,38.28
2023-04-30T01:56:49.820Z,38.31
2023-04-30T01:59:17.603Z,38.33
2023-04-30T02:01:45.159Z,38.33
2023-04-30T02:04:12.916Z,38.33
2023-04-30T02:06:41.748Z,38.36
2023-04-30T02:09:10.692Z,38.36
2023-04-30T02:11:38.468Z,38.23
2023-04-30T02:14:06.251Z,38.20
2023-04-30T02:16:33.799Z,38.21
2023-04-30T02:19:02.054Z,38.21
2023-04-30T02:21:29.437Z,38.24
2023-04-30T02:23:56.894Z,38.25
2023-04-30T02:26:24.632Z,38.29
2023-04-30T02:28:52.124Z,38.35
2023-04-30T02:31:19.623Z,38.30
2023-04-30T02:33:47.369Z,38.23
2023-04-30T02:36:14.754Z,38.23
2023-04-30T02:38:42.233Z,38.20
2023-04-30T02:41:09.867Z,38.17
2023-04-30T02:43:37.344Z,38.19
2023-04-30T02:46:04.801Z,38.17
2023-04-30T02:48:32.549Z,38.21
2023-04-30T02:51:00.067Z,38.23
2023-04-30T02:53:27.495Z,38.25
2023-04-30T02:55:55.180Z,38.28
2023-04-30T02:58:22.581Z,38.33
2023-04-30T03:00:50.760Z,38.29
2023-04-30T03:03:18.556Z,38.35
2023-04-30T03:05:46.080Z,38.43
2023-04-30T03:08:13.552Z,38.45
2023-04-30T03:10:41.395Z,38.44
2023-04-30T03:13:08.887Z,38.42
2023-04-30T03:15:36.271Z,38.43
2023-04-30T03:18:04.410Z,38.40
2023-04-30T03:20:31.875Z,38.34
2023-04-30T03:22:59.290Z,38.32
2023-04-30T03:25:26.937Z,38.34
2023-04-30T03:27:54.386Z,38.33
2023-04-30T03:30:21.802Z,38.33
2023-04-30T03:32:49.519Z,38.33
2023-04-30T03:35:17.407Z,38.31
2023-04-30T03:37:44.832Z,38.31
2023-04-30T03:40:13.178Z,38.33
2023-04-30T03:42:40.629Z,38.37
2023-04-30T03:45:08.304Z,38.39
2023-04-30T03:47:36.112Z,38.40
2023-04-30T03:50:04.096Z,38.44
2023-04-30T03:52:31.575Z,38.50
2023-04-30T03:54:59.816Z,38.51
2023-04-30T03:57:27.246Z,38.52
2023-04-30T03:59:54.901Z,38.53
2023-04-30T04:02:23.154Z,38.55
2023-04-30T04:04:51.923Z,38.57
2023-04-30T04:07:19.374Z,38.54
2023-04-30T04:09:47.011Z,38.50
2023-04-30T04:12:14.681Z,38.55
2023-04-30T04:14:42.117Z,38.58
2023-04-30T04:17:09.566Z,38.66
2023-04-30T04:19:46.549Z,38.63
2023-04-30T04:22:16.142Z,38.57
2023-04-30T04:24:44.361Z,38.56
2023-04-30T04:27:12.228Z,38.60
2023-04-30T04:29:39.725Z,38.66
2023-04-30T04:32:07.990Z,38.63
2023-04-30T04:34:36.049Z,38.69
2023-04-30T04:37:03.482Z,38.71
2023-04-30T04:39:31.314Z,38.69
2023-04-30T04:41:58.875Z,38.69
2023-04-30T04:44:27.232Z,38.72
2023-04-30T04:46:56.865Z,38.70
2023-04-30T04:49:24.426Z,38.71
2023-04-30T04:51:52.514Z,38.72
2023-04-30T04:54:20.179Z,38.74
2023-04-30T04:56:47.783Z,38.73
2023-04-30T04:59:17.495Z,38.71
2023-04-30T05:01:45.745Z,38.73
2023-04-30T05:04:14.109Z,38.74
2023-04-30T05:06:42.709Z,38.79
2023-04-30T05:09:10.550Z,38.80
2023-04-30T05:11:38.341Z,38.79
2023-04-30T05:14:05.960Z,38.81
2023-04-30T05:16:33.755Z,38.79
2023-04-30T05:19:01.209Z,38.77
2023-04-30T05:21:29.846Z,38.75
2023-04-30T05:23:57.763Z,38.66
2023-04-30T05:26:25.221Z,38.66
2023-04-30T05:28:52.623Z,38.65
2023-04-30T05:31:21.095Z,38.62
2023-04-30T05:33:48.771Z,38.63
2023-04-30T05:36:16.236Z,38.61
2023-04-30T05:38:44.052Z,38.62
2023-04-30T05:41:12.469Z,38.63
2023-04-30T05:43:39.949Z,38.64
2023-04-30T05:46:07.713Z,38.63
2023-04-30T05:48:35.272Z,38.64
2023-04-30T05:51:02.981Z,38.68
2023-04-30T05:53:30.815Z,38.68
2023-04-30T05:55:58.312Z,38.68
2023-04-30T05:58:25.925Z,38.62
2023-04-30T06:00:53.658Z,38.55
2023-04-30T06:03:21.711Z,38.56
2023-04-30T06:05:49.280Z,38.56
2023-04-30T06:08:16.796Z,38.58
2023-04-30T06:10:44.786Z,38.62
2023-04-30T06:13:12.226Z,38.60
2023-04-30T06:15:39.610Z,38.61
2023-04-30T06:18:07.595Z,38.60
2023-04-30T06:20:35.098Z,38.59
2023-04-30T06:23:03.922Z,38.60
2023-04-30T06:25:32.471Z,38.61
2023-04-30T06:27:59.797Z,38.47
2023-04-30T06:30:27.538Z,38.67
2023-04-30T06:32:55.708Z,38.88
2023-04-30T06:35:23.306Z,38.97
2023-04-30T06:37:50.726Z,39.07
2023-04-30T06:40:18.481Z,39.11
2023-04-30T06:42:47.463Z,39.09
2023-04-30T06:45:15.297Z,39.06
2023-04-30T06:47:43.340Z,39.21
2023-04-30T06:50:11.026Z,39.22
2023-04-30T06:52:38.733Z,39.33
2023-04-30T06:55:06.785Z,39.34
2023-04-30T06:57:34.275Z,39.36
2023-04-30T07:00:02.285Z,39.41
2023-04-30T07:05:16.169Z,39.56
2023-04-30T07:07:43.869Z,39.55
2023-04-30T07:10:11.502Z,39.59
2023-04-30T07:12:38.954Z,39.61
2023-04-30T07:15:07.182Z,39.68
2023-04-30T07:17:35.286Z,39.72
2023-04-30T07:20:04.583Z,39.75
2023-04-30T07:22:32.375Z,39.78
2023-04-30T07:25:00.674Z,39.79
2023-04-30T07:27:28.359Z,39.80
2023-04-30T07:29:56.567Z,39.80
2023-04-30T07:32:27.177Z,39.80
2023-04-30T07:34:54.675Z,39.74
2023-04-30T07:37:22.357Z,39.72
2023-04-30T07:39:49.748Z,39.67
2023-04-30T07:42:17.113Z,39.64
2023-04-30T07:44:44.822Z,39.61
2023-04-30T07:47:12.277Z,39.51
2023-04-30T07:49:39.696Z,39.47
2023-04-30T07:52:11.011Z,39.41
2023-04-30T07:54:40.089Z,39.37
2023-04-30T07:57:07.872Z,39.16
2023-04-30T07:59:35.412Z,39.08
2023-04-30T08:02:02.875Z,39.16
2023-04-30T08:04:30.701Z,39.20
2023-04-30T08:06:58.187Z,39.23
2023-04-30T08:09:25.645Z,39.22
2023-04-30T08:11:53.411Z,39.21
2023-04-30T08:14:21.612Z,39.21
2023-04-30T08:16:49.039Z,39.19
2023-04-30T08:19:17.973Z,39.19
2023-04-30T08:21:45.650Z,39.18
2023-04-30T08:24:13.122Z,39.18
2023-04-30T08:26:40.777Z,39.17
2023-04-30T08:29:11.262Z,39.16
2023-04-30T08:31:38.759Z,39.17
2023-04-30T08:34:06.771Z,39.17
2023-04-30T08:36:34.191Z,39.16
2023-04-30T08:39:02.189Z,39.17
2023-04-30T08:41:32.912Z,39.15
2023-04-30T08:44:01.671Z,39.18
2023-04-30T08:46:31.019Z,39.16
2023-04-30T08:48:58.833Z,39.15
2023-04-30T08:51:26.426Z,39.13
2023-04-30T08:53:55.080Z,39.15
2023-04-30T08:56:25.274Z,39.20
2023-04-30T08:58:52.789Z,39.21
2023-04-30T09:01:20.185Z,39.04
2023-04-30T09:03:48.182Z,39.18
2023-04-30T09:06:16.924Z,39.27
2023-04-30T09:08:48.406Z,39.28
2023-04-30T09:11:28.945Z,39.28
2023-04-30T09:14:00.568Z,39.23
2023-04-30T09:16:48.042Z,39.23
2023-04-30T09:19:27.931Z,39.19
2023-04-30T09:21:55.507Z,39.17
2023-04-30T09:24:23.250Z,39.00
2023-04-30T09:26:50.844Z,39.08
2023-04-30T09:29:18.706Z,39.11
2023-04-30T09:31:47.289Z,39.10
2023-04-30T09:34:15.353Z,39.14
2023-04-30T09:36:55.397Z,39.14
2023-04-30T09:39:22.848Z,39.16
2023-04-30T09:41:51.440Z,39.16
2023-04-30T09:44:28.619Z,39.17
2023-04-30T09:46:57.766Z,39.15
2023-04-30T09:49:26.082Z,39.16
2023-04-30T09:51:54.675Z,39.15
2023-04-30T09:54:27.928Z,39.14
2023-04-30T09:56:58.862Z,39.13
2023-04-30T09:59:33.031Z,39.12
2023-04-30T10:02:01.291Z,39.12
2023-04-30T10:04:36.683Z,39.10
2023-04-30T10:07:23.019Z,39.10
2023-04-30T10:09:55.807Z,39.05
2023-04-30T10:12:29.996Z,39.07
2023-04-30T10:14:59.971Z,39.08
2023-04-30T10:17:28.437Z,39.07
2023-04-30T10:19:57.909Z,39.04
2023-04-30T10:22:25.651Z,39.04
2023-04-30T10:24:53.876Z,38.98
2023-04-30T10:27:21.350Z,38.95
2023-04-30T10:29:49.190Z,38.87
2023-04-30T10:32:16.809Z,38.83
2023-04-30T10:35:07.416Z,38.73
2023-04-30T10:37:38.570Z,38.63
2023-04-30T10:40:09.153Z,38.58
2023-04-30T10:42:37.042Z,38.52
2023-04-30T10:45:04.739Z,38.45
2023-04-30T10:47:32.243Z,38.41
2023-04-30T10:50:09.625Z,38.32
2023-04-30T10:52:37.940Z,38.25
2023-04-30T10:55:07.516Z,38.22
2023-04-30T10:57:42.811Z,38.16
2023-04-30T11:00:10.466Z,38.08
2023-04-30T11:02:45.855Z,38.07
2023-04-30T11:05:18.099Z,38.00
2023-04-30T11:07:52.433Z,38.00
2023-04-30T11:10:25.092Z,37.93
2023-04-30T11:12:53.983Z,37.91
2023-04-30T11:15:25.638Z,37.87
2023-04-30T11:17:56.779Z,37.84
2023-04-30T11:20:25.538Z,37.86
2023-04-30T11:23:12.588Z,37.81
2023-04-30T11:25:46.932Z,37.76
2023-04-30T11:28:18.886Z,37.78
2023-04-30T11:30:52.691Z,37.77
2023-04-30T11:33:20.632Z,37.76
2023-04-30T11:35:55.712Z,37.74
2023-04-30T11:38:30.691Z,37.71
2023-04-30T11:40:58.551Z,37.67
2023-04-30T11:43:26.832Z,37.66
2023-04-30T11:46:09.416Z,37.64
2023-04-30T11:49:03.819Z,37.53
2023-04-30T11:51:31.485Z,37.51
2023-04-30T11:53:59.138Z,37.46
2023-04-30T11:56:27.629Z,37.46
2023-04-30T11:58:56.092Z,37.41
2023-04-30T12:01:27.204Z,37.39
2023-04-30T12:03:55.997Z,37.36
2023-04-30T12:06:28.344Z,37.32
2023-04-30T12:09:01.600Z,37.27
2023-04-30T12:11:29.775Z,37.26
2023-04-30T12:14:10.855Z,37.25
2023-04-30T12:16:49.406Z,37.18
2023-04-30T12:19:18.625Z,37.20
2023-04-30T12:21:47.277Z,37.15
2023-04-30T12:24:15.306Z,37.17
2023-04-30T12:26:43.137Z,37.14
2023-04-30T12:29:17.900Z,37.07
2023-04-30T12:31:45.795Z,37.07
2023-04-30T12:34:14.093Z,37.10
2023-04-30T12:36:44.308Z,37.12
2023-04-30T12:39:13.177Z,37.09
2023-04-30T12:41:44.349Z,37.08
2023-04-30T12:44:22.195Z,37.10
2023-04-30T12:46:50.467Z,37.10
2023-04-30T12:49:30.955Z,37.14
2023-04-30T12:52:07.545Z,37.16
2023-04-30T12:54:36.177Z,37.15
2023-04-30T12:57:10.881Z,37.07
2023-04-30T12:59:59.475Z,37.06
2023-04-30T13:02:32.089Z,37.02
2023-04-30T13:04:59.987Z,37.05
2023-04-30T13:07:27.404Z,37.07
2023-04-30T13:09:55.106Z,37.08
2023-04-30T13:12:22.976Z,37.04
2023-04-30T13:14:50.414Z,36.99
2023-04-30T13:17:17.866Z,36.98
2023-04-30T13:19:45.556Z,36.94
2023-04-30T13:22:13.439Z,36.95
2023-04-30T13:24:40.938Z,37.00
2023-04-30T13:27:08.677Z,37.09
2023-04-30T13:29:36.097Z,37.17
2023-04-30T13:32:04.229Z,37.22
2023-04-30T13:34:31.978Z,37.24
2023-04-30T13:36:59.536Z,37.30
2023-04-30T13:39:27.003Z,37.31
2023-04-30T13:41:54.655Z,37.34
2023-04-30T13:44:22.328Z,37.37
2023-04-30T13:46:50.150Z,37.43
2023-04-30T13:49:17.986Z,37.46
2023-04-30T13:51:45.448Z,37.44
2023-04-30T13:54:12.855Z,37.47
2023-04-30T13:56:40.569Z,37.43
2023-04-30T13:59:08.241Z,37.46
2023-04-30T14:01:35.651Z,37.50
2023-04-30T14:04:03.403Z,37.50
2023-04-30T14:06:31.141Z,37.50
2023-04-30T14:08:59.763Z,37.50
2023-04-30T14:11:27.622Z,37.51
2023-04-30T14:13:55.332Z,37.56
2023-04-30T14:16:22.837Z,37.56
2023-04-30T14:18:50.592Z,37.57
2023-04-30T14:21:17.984Z,37.60
2023-04-30T14:23:46.632Z,37.60
2023-04-30T14:26:14.702Z,37.64
2023-04-30T14:28:42.158Z,37.64
2023-04-30T14:31:10.606Z,37.64
2023-04-30T14:33:38.555Z,37.62
2023-04-30T14:36:06.872Z,37.63
2023-04-30T14:38:34.313Z,37.67
2023-04-30T14:41:01.990Z,37.66
2023-04-30T14:43:29.388Z,37.66
2023-04-30T14:45:56.906Z,37.69
2023-04-30T14:48:24.652Z,37.73
2023-04-30T14:50:52.297Z,37.68
2023-04-30T14:53:19.691Z,37.69
2023-04-30T14:55:47.658Z,37.74
2023-04-30T14:58:15.309Z,37.72
2023-04-30T15:00:42.793Z,37.69
2023-04-30T15:03:10.961Z,37.73
2023-04-30T15:05:38.431Z,37.71
2023-04-30T15:08:06.689Z,37.72
2023-04-30T15:10:34.475Z,37.72
2023-04-30T15:13:03.288Z,37.74
2023-04-30T15:15:31.214Z,37.72
2023-04-30T15:17:58.936Z,37.70
2023-04-30T15:20:26.424Z,37.74
2023-04-30T15:22:54.996Z,37.71
2023-04-30T15:25:24.112Z,37.71
2023-04-30T15:27:54.890Z,37.71
2023-04-30T15:30:22.287Z,37.69
2023-04-30T15:32:50.509Z,37.70
2023-04-30T18:18:03.414Z,39.84
2023-04-30T18:20:31.486Z,39.87
2023-04-30T18:22:59.031Z,39.90
2023-04-30T18:25:28.166Z,39.90
2023-04-30T18:27:56.110Z,39.96
2023-04-30T18:30:23.619Z,40.00
2023-04-30T18:32:51.396Z,39.95
2023-04-30T18:35:19.301Z,39.93
2023-04-30T18:37:46.731Z,39.86
2023-04-30T18:40:17.506Z,39.86
2023-04-30T18:42:45.894Z,39.82
2023-04-30T18:45:14.997Z,39.77
2023-04-30T18:47:43.011Z,39.78
2023-04-30T18:50:15.384Z,39.76
2023-04-30T18:52:43.226Z,39.63
2023-04-30T18:55:14.277Z,39.68
2023-04-30T18:57:43.305Z,39.73
2023-04-30T19:00:14.165Z,39.88
2023-04-30T19:02:43.504Z,39.94
2023-04-30T19:05:14.592Z,40.04
2023-04-30T19:07:45.336Z,40.12
2023-04-30T19:10:13.216Z,40.24
2023-04-30T19:12:41.732Z,40.29
2023-04-30T19:15:12.183Z,40.36
2023-04-30T19:17:40.769Z,40.45
2023-04-30T19:20:09.444Z,40.47
2023-04-30T19:22:37.853Z,40.49
2023-04-30T19:25:06.563Z,40.49
2023-04-30T19:27:34.509Z,40.53
2023-04-30T19:30:02.289Z,40.53
2023-04-30T19:32:30.592Z,40.48
2023-04-30T19:34:59.495Z,40.46
2023-04-30T19:37:27.937Z,40.43
2023-04-30T19:39:56.501Z,40.44
2023-04-30T19:42:24.860Z,40.40
2023-04-30T19:44:53.313Z,40.38
2023-04-30T19:47:24.781Z,40.32
2023-04-30T19:49:54.000Z,40.29
2023-04-30T19:52:22.074Z,40.23
2023-04-30T19:54:51.102Z,40.20
2023-04-30T19:57:20.335Z,40.14
2023-04-30T19:59:48.556Z,40.13
2023-04-30T20:02:16.667Z,40.13
2023-04-30T20:04:44.781Z,40.12
2023-04-30T20:07:12.761Z,40.09
2023-04-30T20:09:41.413Z,40.06
2023-04-30T20:12:10.016Z,40.02
2023-04-30T20:14:37.729Z,40.04
2023-04-30T20:17:08.393Z,40.06
2023-04-30T20:19:37.113Z,40.04
2023-04-30T20:22:05.710Z,40.02
2023-04-30T20:24:33.909Z,39.97
2023-04-30T20:27:02.053Z,39.61
2023-04-30T20:29:29.938Z,39.13
2023-04-30T20:31:58.493Z,39.33
2023-04-30T20:34:26.201Z,39.39
2023-04-30T20:36:54.506Z,39.35
2023-04-30T20:39:22.438Z,39.32
2023-04-30T20:41:50.430Z,39.30
2023-04-30T20:44:18.225Z,39.29
2023-04-30T20:46:45.940Z,39.27
2023-04-30T20:49:14.609Z,39.24
2023-04-30T20:51:42.049Z,39.27
2023-04-30T20:54:09.712Z,39.22
2023-04-30T20:56:37.719Z,39.22
2023-04-30T20:59:05.894Z,39.23
2023-04-30T21:01:34.480Z,39.22
2023-04-30T21:04:02.389Z,39.20
2023-04-30T21:06:29.831Z,39.23
2023-04-30T21:08:57.613Z,39.23
2023-04-30T21:11:25.954Z,39.26
2023-04-30T21:13:53.365Z,39.23
2023-04-30T21:16:20.990Z,39.41
2023-04-30T21:18:48.837Z,39.50
2023-04-30T21:21:17.015Z,39.43
2023-04-30T21:23:47.352Z,39.48
2023-04-30T21:26:16.552Z,39.53
2023-04-30T21:28:44.279Z,39.52
2023-04-30T21:31:11.815Z,39.51
2023-04-30T21:33:39.726Z,39.52
2023-04-30T21:36:07.504Z,39.53
2023-04-30T21:38:35.101Z,39.54
2023-04-30T21:41:02.813Z,39.56
2023-04-30T21:43:30.938Z,39.55
2023-04-30T21:46:02.913Z,39.56
2023-04-30T21:48:30.670Z,39.58
2023-04-30T21:50:58.115Z,39.55
2023-04-30T21:53:25.583Z,39.54
2023-04-30T21:55:53.307Z,39.56
2023-04-30T21:58:20.710Z,39.54
2023-04-30T22:00:48.916Z,39.55
2023-04-30T22:03:16.730Z,39.54
2023-04-30T22:05:44.529Z,39.52
2023-04-30T22:08:11.934Z,39.52
2023-04-30T22:10:39.651Z,39.52
2023-04-30T22:13:07.059Z,39.61
2023-04-30T22:15:47.031Z,39.61
2023-04-30T22:18:15.742Z,39.58
2023-04-30T22:20:43.146Z,39.60
2023-04-30T22:23:10.673Z,39.61
2023-04-30T22:25:38.356Z,39.62
2023-04-30T22:28:05.779Z,39.63
2023-04-30T22:30:33.163Z,39.61
2023-04-30T22:33:00.869Z,39.67
2023-04-30T22:35:28.328Z,39.69
2023-04-30T22:37:55.811Z,39.66
2023-04-30T22:40:23.471Z,39.71
2023-04-30T22:42:50.944Z,39.70
2023-04-30T22:45:18.493Z,39.70
2023-04-30T22:47:46.183Z,39.70
2023-04-30T22:50:13.616Z,39.69
2023-04-30T22:52:41.040Z,39.70
2023-04-30T22:55:08.850Z,39.68
2023-04-30T22:57:36.605Z,39.65
2023-04-30T23:00:05.009Z,39.65
2023-04-30T23:02:32.742Z,39.64
2023-04-30T23:05:00.113Z,39.60
2023-04-30T23:07:27.606Z,39.59
2023-04-30T23:09:55.510Z,39.62
2023-04-30T23:12:23.231Z,39.61
2023-04-30T23:14:50.976Z,39.61
2023-04-30T23:17:18.861Z,39.66
2023-04-30T23:19:46.367Z,39.64
2023-04-30T23:22:13.775Z,39.64
2023-04-30T23:24:41.455Z,39.73
2023-04-30T23:27:08.972Z,39.81
2023-04-30T23:29:36.647Z,39.83
2023-04-30T23:32:04.674Z,39.83
2023-04-30T23:34:32.296Z,39.86
2023-04-30T23:36:59.762Z,39.86
2023-04-30T23:39:27.419Z,39.85
2023-04-30T23:41:54.965Z,39.83
2023-04-30T23:44:22.344Z,39.89
2023-04-30T23:46:51.104Z,39.97
2023-04-30T23:49:18.889Z,39.97
2023-04-30T23:51:46.518Z,39.93
2023-04-30T23:54:14.309Z,39.95
2023-04-30T23:56:41.751Z,39.95
2023-04-30T23:59:10.240Z,39.94
